Time;durP1;ratioP1;P1;durP2;ratioP2;P2;SDS_P1;SDS_P2;PMS_P1;PMS_P2;Temp;Humidity;BMP_temperature;BMP_pressure;BME280_temperature;BME280_humidity;BME280_pressure;Samples;Min_cycle;Max_cycle;Signal;HPM_P1;HPM_P2
2023/10/20 00:00:51;;;;;;;8.63;3.80;;;;;;;;;;5034506;28;20174;-81
2023/10/20 00:03:16;;;;;;;4.57;4.17;;;;;;;;;;5034852;28;20181;-81
2023/10/20 00:05:42;;;;;;;4.60;4.20;;;;;;;;;;5035709;28;20255;-81
2023/10/20 00:08:07;;;;;;;5.20;3.70;;;;;;;;;;5031906;28;20269;-81
2023/10/20 00:10:35;;;;;;;6.33;3.90;;;;;;;;;;5034439;28;20182;-80
2023/10/20 00:13:01;;;;;;;4.17;3.80;;;;;;;;;;5028342;28;20200;-80
2023/10/20 00:15:26;;;;;;;5.00;3.70;;;;;;;;;;5029954;28;20220;-81
2023/10/20 00:17:51;;;;;;;5.97;4.00;;;;;;;;;;5029183;28;20196;-81
2023/10/20 00:20:17;;;;;;;4.20;3.80;;;;;;;;;;5026329;28;20225;-81
2023/10/20 00:22:43;;;;;;;4.47;4.07;;;;;;;;;;5030623;28;20181;-81
2023/10/20 00:25:11;;;;;;;4.80;4.30;;;;;;;;;;5029022;28;20173;-80
2023/10/20 00:27:36;;;;;;;4.30;3.90;;;;;;;;;;5033963;28;20195;-80
2023/10/20 00:30:02;;;;;;;4.33;3.93;;;;;;;;;;5031349;28;20182;-81
2023/10/20 00:32:27;;;;;;;4.27;3.37;;;;;;;;;;5039240;28;20263;-81
2023/10/20 00:34:53;;;;;;;4.10;3.43;;;;;;;;;;5031236;28;20244;-81
2023/10/20 00:37:18;;;;;;;3.97;3.57;;;;;;;;;;5035332;28;20233;-81
2023/10/20 00:39:44;;;;;;;3.77;3.30;;;;;;;;;;5025501;28;20184;-81
2023/10/20 00:42:09;;;;;;;3.40;3.13;;;;;;;;;;5050628;28;20178;-81
2023/10/20 00:44:34;;;;;;;5.90;3.50;;;;;;;;;;5029479;28;20280;-81
2023/10/20 00:46:59;;;;;;;3.90;3.37;;;;;;;;;;5038336;28;20174;-81
2023/10/20 00:49:25;;;;;;;3.80;3.50;;;;;;;;;;5048925;28;20181;-81
2023/10/20 00:51:50;;;;;;;4.40;3.80;;;;;;;;;;5030301;28;20184;-81
2023/10/20 00:54:16;;;;;;;4.07;3.77;;;;;;;;;;5035449;28;20181;-81
2023/10/20 00:56:42;;;;;;;5.93;4.13;;;;;;;;;;5034993;28;20319;-81
2023/10/20 00:59:08;;;;;;;5.37;3.63;;;;;;;;;;5032911;28;20217;-81
2023/10/20 01:01:33;;;;;;;4.40;3.87;;;;;;;;;;5040519;28;20185;-80
2023/10/20 01:03:59;;;;;;;4.13;3.40;;;;;;;;;;5035102;28;20176;-80
2023/10/20 01:06:25;;;;;;;3.60;3.30;;;;;;;;;;5036934;28;20181;-80
2023/10/20 01:08:54;;;;;;;4.27;3.30;;;;;;;;;;5031316;28;20184;-80
2023/10/20 01:11:19;;;;;;;4.27;3.87;;;;;;;;;;5037767;28;20178;-81
2023/10/20 01:13:44;;;;;;;3.57;3.27;;;;;;;;;;5037783;28;20255;-81
2023/10/20 01:16:09;;;;;;;4.83;3.50;;;;;;;;;;5037234;28;20204;-81
2023/10/20 01:18:35;;;;;;;3.90;3.50;;;;;;;;;;5032185;28;20185;-81
2023/10/20 01:21:00;;;;;;;5.77;3.23;;;;;;;;;;5031988;28;20176;-81
2023/10/20 01:23:25;;;;;;;4.70;3.60;;;;;;;;;;5040951;28;20191;-81
2023/10/20 01:25:53;;;;;;;3.37;3.07;;;;;;;;;;5027744;28;20173;-81
2023/10/20 01:28:19;;;;;;;3.30;3.00;;;;;;;;;;5055875;28;20204;-81
2023/10/20 01:30:44;;;;;;;6.07;3.40;;;;;;;;;;5037545;28;20184;-80
2023/10/20 01:33:09;;;;;;;3.57;3.10;;;;;;;;;;5030625;28;20202;-81
2023/10/20 01:35:35;;;;;;;3.20;2.90;;;;;;;;;;5028849;28;20271;-80
2023/10/20 01:38:00;;;;;;;6.30;3.50;;;;;;;;;;5044113;28;20221;-80
2023/10/20 01:40:27;;;;;;;3.87;3.00;;;;;;;;;;5039925;28;20177;-80
2023/10/20 01:42:52;;;;;;;3.40;3.10;;;;;;;;;;5032567;28;20207;-80
2023/10/20 01:45:17;;;;;;;3.60;3.10;;;;;;;;;;5027470;28;20204;-80
2023/10/20 01:47:43;;;;;;;5.00;3.00;;;;;;;;;;5040918;28;20182;-81
2023/10/20 01:50:09;;;;;;;3.60;2.80;;;;;;;;;;5033718;28;20180;-81
2023/10/20 01:52:34;;;;;;;4.47;2.60;;;;;;;;;;5032429;28;20197;-81
2023/10/20 01:54:59;;;;;;;2.77;2.57;;;;;;;;;;5034009;28;20181;-81
2023/10/20 01:57:24;;;;;;;4.83;3.10;;;;;;;;;;5039762;28;20322;-81
2023/10/20 01:59:50;;;;;;;3.70;3.00;;;;;;;;;;5036850;28;20197;-81
2023/10/20 02:02:15;;;;;;;3.10;2.73;;;;;;;;;;5056938;28;20177;-81
2023/10/20 02:04:41;;;;;;;2.70;2.50;;;;;;;;;;5036246;28;20201;-81
2023/10/20 02:07:06;;;;;;;3.83;2.63;;;;;;;;;;5051092;28;20189;-81
2023/10/20 02:09:31;;;;;;;3.03;2.73;;;;;;;;;;5032985;28;20272;-80
2023/10/20 02:11:58;;;;;;;4.20;2.47;;;;;;;;;;5031339;28;20208;-80
2023/10/20 02:14:24;;;;;;;2.90;2.57;;;;;;;;;;5035164;28;20182;-81
2023/10/20 02:16:50;;;;;;;2.47;2.27;;;;;;;;;;5027120;28;20352;-81
2023/10/20 02:19:15;;;;;;;3.60;2.30;;;;;;;;;;5028602;28;20176;-81
2023/10/20 02:21:41;;;;;;;3.10;2.80;;;;;;;;;;5044257;28;20182;-81
2023/10/20 02:24:07;;;;;;;2.70;2.50;;;;;;;;;;5028960;28;20210;-81
2023/10/20 02:26:33;;;;;;;2.70;2.50;;;;;;;;;;5041933;28;20179;-81
2023/10/20 02:28:58;;;;;;;3.57;2.70;;;;;;;;;;5033935;28;20185;-81
2023/10/20 02:31:23;;;;;;;3.50;2.67;;;;;;;;;;5037949;28;20193;-81
2023/10/20 02:33:48;;;;;;;2.87;2.57;;;;;;;;;;5031353;28;20189;-81
2023/10/20 02:36:17;;;;;;;3.00;2.77;;;;;;;;;;5051034;28;20195;-81
2023/10/20 02:38:43;;;;;;;2.67;2.47;;;;;;;;;;5030185;28;20341;-80
2023/10/20 02:41:08;;;;;;;2.77;2.57;;;;;;;;;;5030644;28;20246;-81
2023/10/20 02:43:33;;;;;;;3.30;2.77;;;;;;;;;;5058567;28;20243;-80
2023/10/20 02:45:59;;;;;;;3.33;2.40;;;;;;;;;;5032485;28;20178;-80
2023/10/20 02:48:24;;;;;;;2.60;2.40;;;;;;;;;;5033858;28;20249;-80
2023/10/20 02:50:50;;;;;;;2.60;2.37;;;;;;;;;;5030812;28;20175;-81
2023/10/20 02:53:15;;;;;;;2.10;2.00;;;;;;;;;;5035451;28;20187;-81
2023/10/20 02:55:41;;;;;;;4.70;2.53;;;;;;;;;;5051279;28;20205;-80
2023/10/20 02:58:07;;;;;;;3.17;2.13;;;;;;;;;;5033068;28;20207;-81
2023/10/20 03:00:33;;;;;;;4.57;3.00;;;;;;;;;;5032748;28;20178;-80
2023/10/20 03:02:58;;;;;;;3.87;2.50;;;;;;;;;;5030490;28;20182;-82
2023/10/20 03:05:27;;;;;;;2.80;2.50;;;;;;;;;;5035853;28;20432;-81
2023/10/20 03:07:52;;;;;;;3.60;2.83;;;;;;;;;;5033195;28;20181;-81
2023/10/20 03:10:17;;;;;;;2.87;2.67;;;;;;;;;;5031204;28;20191;-82
2023/10/20 03:12:42;;;;;;;2.93;2.73;;;;;;;;;;5038366;28;20185;-81
2023/10/20 03:15:11;;;;;;;6.40;3.40;;;;;;;;;;5028882;28;20186;-80
2023/10/20 03:17:36;;;;;;;3.43;2.90;;;;;;;;;;5030132;28;20264;-81
2023/10/20 03:20:08;;;;;;;3.73;3.17;;;;;;;;;;5030676;28;20260;-82
2023/10/20 03:22:34;;;;;;;3.13;2.70;;;;;;;;;;5036772;28;20203;-80
2023/10/20 03:25:00;;;;;;;3.03;2.73;;;;;;;;;;5049617;28;20177;-82
2023/10/20 03:27:25;;;;;;;3.97;2.87;;;;;;;;;;5032347;28;20209;-83
2023/10/20 03:29:50;;;;;;;4.90;2.87;;;;;;;;;;5027920;28;20217;-81
2023/10/20 03:32:16;;;;;;;3.67;2.97;;;;;;;;;;5030095;28;20189;-82
2023/10/20 03:34:41;;;;;;;5.30;3.00;;;;;;;;;;5032183;28;20325;-83
2023/10/20 03:37:06;;;;;;;2.90;2.60;;;;;;;;;;5033772;28;20208;-83
2023/10/20 03:39:33;;;;;;;3.50;3.20;;;;;;;;;;5033759;28;20192;-83
2023/10/20 03:41:58;;;;;;;2.60;2.40;;;;;;;;;;5052698;28;20232;-83
2023/10/20 03:44:23;;;;;;;3.43;2.80;;;;;;;;;;5030644;28;20635;-83
2023/10/20 03:46:49;;;;;;;3.13;2.83;;;;;;;;;;5034459;28;20249;-83
2023/10/20 03:49:18;;;;;;;4.47;2.90;;;;;;;;;;5046224;28;20272;-84
2023/10/20 03:51:50;;;;;;;3.23;2.67;;;;;;;;;;5032121;28;20181;-82
2023/10/20 03:54:15;;;;;;;2.63;2.43;;;;;;;;;;5032808;28;20400;-83
2023/10/20 03:56:41;;;;;;;3.13;2.67;;;;;;;;;;5022634;28;20209;-82
2023/10/20 03:59:06;;;;;;;5.03;2.43;;;;;;;;;;5032249;28;20185;-82
2023/10/20 04:01:32;;;;;;;3.63;2.40;;;;;;;;;;5034429;28;20270;-82
2023/10/20 04:03:57;;;;;;;6.60;2.60;;;;;;;;;;5051485;28;20179;-82
2023/10/20 04:06:22;;;;;;;3.37;2.83;;;;;;;;;;5029801;28;20185;-82
2023/10/20 04:08:48;;;;;;;2.60;2.40;;;;;;;;;;5045922;28;20184;-82
2023/10/20 04:11:14;;;;;;;2.77;2.50;;;;;;;;;;5030120;28;20189;-82
2023/10/20 04:13:39;;;;;;;2.90;2.10;;;;;;;;;;5027886;28;20185;-83
2023/10/20 04:16:16;;;;;;;2.60;2.40;;;;;;;;;;5049138;28;20200;-82
2023/10/20 04:18:42;;;;;;;2.90;2.60;;;;;;;;;;5032514;28;20210;-80
2023/10/20 04:21:10;;;;;;;2.70;2.20;;;;;;;;;;5036051;28;20183;-82
2023/10/20 04:23:36;;;;;;;2.83;2.30;;;;;;;;;;5035855;28;20185;-83
2023/10/20 04:26:02;;;;;;;3.57;2.20;;;;;;;;;;5032012;28;20220;-83
2023/10/20 04:28:42;;;;;;;2.57;1.90;;;;;;;;;;5035276;28;20242;-84
2023/10/20 04:58:00;;;;;;;4.17;2.67;;;;;;;;;;5055693;28;20229;-83
2023/10/20 05:05:32;;;;;;;2.87;2.60;;;;;;;;;;5057825;28;20280;-79
2023/10/20 05:08:05;;;;;;;2.93;2.67;;;;;;;;;;5031998;28;20522;-80
2023/10/20 05:10:31;;;;;;;5.07;2.60;;;;;;;;;;5038301;28;20185;-80
2023/10/20 05:12:56;;;;;;;5.30;3.93;;;;;;;;;;5054752;28;20181;-80
2023/10/20 05:15:21;;;;;;;3.50;2.90;;;;;;;;;;5040133;28;20187;-80
2023/10/20 05:17:46;;;;;;;3.83;2.97;;;;;;;;;;5045969;28;20226;-81
2023/10/20 05:20:13;;;;;;;3.27;2.97;;;;;;;;;;5052635;28;20177;-81
2023/10/20 05:22:41;;;;;;;7.27;3.80;;;;;;;;;;5031735;28;20273;-80
2023/10/20 05:25:07;;;;;;;4.30;3.90;;;;;;;;;;5032125;28;20201;-80
2023/10/20 05:27:32;;;;;;;5.17;3.77;;;;;;;;;;5048372;28;20186;-80
2023/10/20 05:29:58;;;;;;;4.80;4.30;;;;;;;;;;5053483;28;20686;-79
2023/10/20 05:32:23;;;;;;;4.20;3.80;;;;;;;;;;5033661;28;20185;-79
2023/10/20 05:34:53;;;;;;;3.80;3.40;;;;;;;;;;5046869;28;20351;-79
2023/10/20 05:37:18;;;;;;;4.33;3.93;;;;;;;;;;5034366;28;20249;-79
2023/10/20 05:39:45;;;;;;;4.50;4.17;;;;;;;;;;5036144;28;20205;-79
2023/10/20 05:42:10;;;;;;;4.63;4.13;;;;;;;;;;5053935;28;20177;-79
2023/10/20 05:44:37;;;;;;;6.57;4.30;;;;;;;;;;5034565;28;20185;-78
2023/10/20 05:47:04;;;;;;;4.47;3.30;;;;;;;;;;5054864;28;20178;-79
2023/10/20 05:49:29;;;;;;;3.07;2.83;;;;;;;;;;5036274;28;20182;-78
2023/10/20 05:51:55;;;;;;;4.57;3.03;;;;;;;;;;5057848;28;20182;-79
2023/10/20 05:54:20;;;;;;;3.87;3.23;;;;;;;;;;5036006;28;20227;-79
2023/10/20 05:56:45;;;;;;;3.77;3.30;;;;;;;;;;5054493;28;20199;-79
2023/10/20 05:59:10;;;;;;;3.13;2.83;;;;;;;;;;5036544;28;20183;-79
2023/10/20 06:01:35;;;;;;;4.23;3.13;;;;;;;;;;5039342;28;20170;-79
2023/10/20 06:04:01;;;;;;;2.87;2.63;;;;;;;;;;5028905;28;20196;-78
2023/10/20 06:06:26;;;;;;;3.97;2.87;;;;;;;;;;5034714;28;20186;-80
2023/10/20 06:08:51;;;;;;;2.90;2.60;;;;;;;;;;5057110;28;20212;-80
2023/10/20 06:11:17;;;;;;;4.57;3.37;;;;;;;;;;5048920;28;20273;-80
2023/10/20 06:13:42;;;;;;;3.63;3.20;;;;;;;;;;5034142;28;20279;-80
2023/10/20 06:16:10;;;;;;;3.87;2.80;;;;;;;;;;5052672;28;20204;-80
2023/10/20 06:18:36;;;;;;;2.93;2.60;;;;;;;;;;5033833;28;20182;-78
2023/10/20 06:21:01;;;;;;;3.57;3.27;;;;;;;;;;5043536;28;20185;-80
2023/10/20 06:23:26;;;;;;;3.83;2.70;;;;;;;;;;5038340;28;20184;-80
2023/10/20 06:25:52;;;;;;;5.07;3.30;;;;;;;;;;5046916;28;20214;-80
2023/10/20 06:28:17;;;;;;;4.00;3.00;;;;;;;;;;5056235;28;20213;-79
2023/10/20 06:30:44;;;;;;;3.73;3.43;;;;;;;;;;5027931;28;20172;-79
2023/10/20 06:35:52;;;;;;;4.07;3.63;;;;;;;;;;5051290;28;20188;-80
2023/10/20 06:38:20;;;;;;;4.23;3.50;;;;;;;;;;5050667;28;20236;-79
2023/10/20 06:40:47;;;;;;;3.97;3.57;;;;;;;;;;5046910;28;20180;-80
2023/10/20 06:43:12;;;;;;;3.60;3.30;;;;;;;;;;5059660;28;20179;-80
2023/10/20 06:45:38;;;;;;;3.70;3.40;;;;;;;;;;5035917;28;20184;-80
2023/10/20 06:48:04;;;;;;;3.90;3.27;;;;;;;;;;5037353;28;20184;-80
2023/10/20 06:50:29;;;;;;;3.83;3.40;;;;;;;;;;5044744;28;20263;-79
2023/10/20 06:52:55;;;;;;;4.10;3.37;;;;;;;;;;5057696;28;20187;-79
2023/10/20 06:55:21;;;;;;;3.53;3.23;;;;;;;;;;5045390;28;20646;-80
2023/10/20 06:57:46;;;;;;;4.57;3.77;;;;;;;;;;5023382;28;20201;-80
2023/10/20 07:00:17;;;;;;;3.63;3.33;;;;;;;;;;5033132;28;20177;-79
2023/10/20 07:02:43;;;;;;;3.20;2.87;;;;;;;;;;5030375;28;20177;-77
2023/10/20 07:05:08;;;;;;;4.97;4.20;;;;;;;;;;5037572;28;20178;-79
2023/10/20 07:07:33;;;;;;;6.47;3.90;;;;;;;;;;5053120;28;20250;-79
2023/10/20 07:09:59;;;;;;;3.80;3.50;;;;;;;;;;5023543;28;20179;-78
2023/10/20 07:12:24;;;;;;;6.67;3.40;;;;;;;;;;5031269;28;20244;-79
2023/10/20 07:14:50;;;;;;;4.30;3.90;;;;;;;;;;5033587;28;20624;-78
2023/10/20 07:17:15;;;;;;;5.07;4.10;;;;;;;;;;5030089;28;20204;-79
2023/10/20 07:19:40;;;;;;;5.30;4.80;;;;;;;;;;5053585;28;20183;-80
2023/10/20 07:22:06;;;;;;;6.70;6.03;;;;;;;;;;5021690;28;20173;-79
2023/10/20 07:24:31;;;;;;;6.80;4.37;;;;;;;;;;5039030;28;20185;-80
2023/10/20 07:26:57;;;;;;;6.83;4.47;;;;;;;;;;5032618;28;20182;-79
2023/10/20 07:29:22;;;;;;;5.10;4.60;;;;;;;;;;5023482;28;20189;-79
2023/10/20 07:31:47;;;;;;;6.67;4.20;;;;;;;;;;5032091;28;20181;-79
2023/10/20 07:34:13;;;;;;;6.33;5.00;;;;;;;;;;5032646;28;20212;-79
2023/10/20 07:36:38;;;;;;;6.03;5.30;;;;;;;;;;5037754;28;20188;-80
2023/10/20 07:39:04;;;;;;;10.27;6.50;;;;;;;;;;5036230;28;20314;-79
2023/10/20 07:41:29;;;;;;;5.77;5.10;;;;;;;;;;5033093;28;20186;-79
2023/10/20 07:43:55;;;;;;;6.90;6.17;;;;;;;;;;5053274;28;20172;-80
2023/10/20 07:46:21;;;;;;;6.40;5.40;;;;;;;;;;5032532;28;20229;-79
2023/10/20 07:48:46;;;;;;;5.60;5.10;;;;;;;;;;5038130;28;20240;-78
2023/10/20 07:51:12;;;;;;;5.77;5.23;;;;;;;;;;5033775;28;20185;-79
2023/10/20 07:53:37;;;;;;;5.10;4.60;;;;;;;;;;5046693;28;20401;-79
2023/10/20 07:56:02;;;;;;;5.87;4.57;;;;;;;;;;5023369;28;20230;-79
2023/10/20 07:58:28;;;;;;;8.57;6.07;;;;;;;;;;5036253;28;20206;-79
2023/10/20 08:00:54;;;;;;;6.20;5.60;;;;;;;;;;5055737;28;20195;-79
2023/10/20 08:03:19;;;;;;;5.90;5.03;;;;;;;;;;5039568;28;20180;-79
2023/10/20 08:05:44;;;;;;;6.03;5.27;;;;;;;;;;5036539;28;20256;-78
2023/10/20 08:08:09;;;;;;;5.00;4.57;;;;;;;;;;5049001;28;20174;-79
2023/10/20 08:10:36;;;;;;;8.77;7.17;;;;;;;;;;5041492;28;20373;-78
2023/10/20 08:13:02;;;;;;;6.50;5.77;;;;;;;;;;5037924;28;20181;-79
2023/10/20 08:15:28;;;;;;;7.67;6.13;;;;;;;;;;5024689;28;20220;-79
2023/10/20 08:17:53;;;;;;;6.10;5.50;;;;;;;;;;5028938;28;20216;-77
2023/10/20 08:20:19;;;;;;;11.63;7.87;;;;;;;;;;5029024;28;20175;-79
2023/10/20 08:22:44;;;;;;;6.93;6.23;;;;;;;;;;5024838;28;20192;-79
2023/10/20 08:25:09;;;;;;;7.60;6.07;;;;;;;;;;5032077;28;20186;-79
2023/10/20 08:27:35;;;;;;;7.70;6.43;;;;;;;;;;5038390;28;20185;-79
2023/10/20 08:30:00;;;;;;;12.93;7.40;;;;;;;;;;5032738;28;20186;-79
2023/10/20 08:32:26;;;;;;;7.27;6.37;;;;;;;;;;5033720;28;20176;-79
2023/10/20 08:34:51;;;;;;;9.30;7.07;;;;;;;;;;5047973;28;20170;-79
2023/10/20 08:37:17;;;;;;;7.90;7.10;;;;;;;;;;5034141;28;20262;-79
2023/10/20 08:39:45;;;;;;;8.43;7.63;;;;;;;;;;5036279;28;20203;-79
2023/10/20 08:42:17;;;;;;;8.37;7.57;;;;;;;;;;5022136;28;20184;-79
2023/10/20 08:44:43;;;;;;;10.00;7.70;;;;;;;;;;5031518;28;20194;-79
2023/10/20 08:47:10;;;;;;;8.07;7.30;;;;;;;;;;5050692;28;20289;-79
2023/10/20 08:49:36;;;;;;;8.67;7.80;;;;;;;;;;5037138;28;20188;-79
2023/10/20 08:52:02;;;;;;;8.53;7.37;;;;;;;;;;5033932;28;20181;-79
2023/10/20 08:54:27;;;;;;;7.40;6.70;;;;;;;;;;5029602;28;20174;-79
2023/10/20 08:56:52;;;;;;;7.80;7.00;;;;;;;;;;5053729;28;20208;-79
2023/10/20 08:59:19;;;;;;;6.73;6.03;;;;;;;;;;5035819;28;20209;-79
2023/10/20 09:01:46;;;;;;;6.80;6.17;;;;;;;;;;5041564;28;20250;-79
2023/10/20 09:04:19;;;;;;;8.73;6.67;;;;;;;;;;5031251;28;20431;-79
2023/10/20 09:06:44;;;;;;;7.23;6.53;;;;;;;;;;5058014;28;20200;-79
2023/10/20 09:09:10;;;;;;;8.30;5.83;;;;;;;;;;5047997;28;20211;-79
2023/10/20 09:11:35;;;;;;;6.00;5.50;;;;;;;;;;5041641;28;20202;-79
2023/10/20 09:14:02;;;;;;;6.30;5.10;;;;;;;;;;5054879;28;20171;-79
2023/10/20 09:16:28;;;;;;;6.63;5.43;;;;;;;;;;5036463;28;20304;-78
2023/10/20 09:18:53;;;;;;;6.17;4.77;;;;;;;;;;5051762;28;20267;-78
2023/10/20 09:21:20;;;;;;;5.97;5.37;;;;;;;;;;5040377;28;20242;-79
2023/10/20 09:23:54;;;;;;;5.43;4.83;;;;;;;;;;5057711;28;20251;-78
2023/10/20 09:26:20;;;;;;;6.70;5.17;;;;;;;;;;5034502;28;20187;-79
2023/10/20 09:28:49;;;;;;;5.50;5.00;;;;;;;;;;5054384;28;20178;-79
2023/10/20 09:31:15;;;;;;;6.10;4.53;;;;;;;;;;5056806;28;20166;-79
2023/10/20 09:33:42;;;;;;;5.03;4.40;;;;;;;;;;5038668;28;20207;-78
2023/10/20 09:36:07;;;;;;;4.73;3.77;;;;;;;;;;5033509;28;20298;-79
2023/10/20 09:38:34;;;;;;;3.80;3.50;;;;;;;;;;5036843;28;20398;-78
2023/10/20 09:41:06;;;;;;;3.93;3.43;;;;;;;;;;5056432;28;20181;-79
2023/10/20 09:43:36;;;;;;;4.10;3.10;;;;;;;;;;5049589;28;20192;-79
2023/10/20 09:46:24;;;;;;;3.53;3.07;;;;;;;;;;5029219;28;20199;-78
2023/10/20 09:48:51;;;;;;;3.40;3.10;;;;;;;;;;5023379;28;20185;-79
2023/10/20 09:51:18;;;;;;;3.10;2.80;;;;;;;;;;5033341;28;20178;-79
2023/10/20 09:53:43;;;;;;;2.90;2.33;;;;;;;;;;5048475;28;20174;-78
2023/10/20 09:56:09;;;;;;;2.90;2.60;;;;;;;;;;5043605;28;20216;-78
2023/10/20 09:58:36;;;;;;;2.37;2.17;;;;;;;;;;5031276;28;20171;-79
2023/10/20 10:01:03;;;;;;;2.10;1.90;;;;;;;;;;5026701;28;20271;-78
2023/10/20 10:03:45;;;;;;;1.97;1.87;;;;;;;;;;5055978;28;20237;-79
2023/10/20 10:06:15;;;;;;;2.77;1.67;;;;;;;;;;5038123;28;20183;-79
2023/10/20 10:08:41;;;;;;;1.80;1.70;;;;;;;;;;5030983;28;20180;-79
2023/10/20 10:11:19;;;;;;;1.80;1.70;;;;;;;;;;5041964;28;20198;-79
2023/10/20 10:13:44;;;;;;;3.57;1.70;;;;;;;;;;5033791;28;20243;-79
2023/10/20 10:16:13;;;;;;;1.83;1.73;;;;;;;;;;5052783;28;21062;-78
2023/10/20 10:18:44;;;;;;;2.17;1.50;;;;;;;;;;5043876;28;20193;-79
2023/10/20 10:21:20;;;;;;;1.43;1.33;;;;;;;;;;5045128;28;20164;-79
2023/10/20 10:24:00;;;;;;;1.37;1.27;;;;;;;;;;5052890;28;20175;-79
2023/10/20 10:26:26;;;;;;;1.30;1.20;;;;;;;;;;5038626;28;20599;-79
2023/10/20 10:28:52;;;;;;;1.30;1.20;;;;;;;;;;5055738;28;20476;-78
2023/10/20 10:31:17;;;;;;;2.23;1.10;;;;;;;;;;5055920;28;20174;-79
2023/10/20 10:33:42;;;;;;;3.17;1.93;;;;;;;;;;5031697;28;20176;-79
2023/10/20 10:36:10;;;;;;;2.20;1.30;;;;;;;;;;5026564;28;20471;-80
2023/10/20 10:38:43;;;;;;;1.40;1.30;;;;;;;;;;5047026;28;20520;-79
2023/10/20 10:41:08;;;;;;;2.27;1.40;;;;;;;;;;5035475;28;20205;-79
2023/10/20 10:43:33;;;;;;;0.80;0.80;;;;;;;;;;5027767;28;20183;-79
2023/10/20 10:45:58;;;;;;;1.07;0.70;;;;;;;;;;5040345;28;20205;-79
2023/10/20 10:48:24;;;;;;;0.70;0.70;;;;;;;;;;5054849;28;20269;-79
2023/10/20 10:50:50;;;;;;;0.60;0.60;;;;;;;;;;5032777;28;20284;-78
2023/10/20 10:53:16;;;;;;;0.70;0.70;;;;;;;;;;5037561;28;20171;-78
2023/10/20 10:55:41;;;;;;;6.23;5.83;;;;;;;;;;5037968;28;20183;-80
2023/10/20 10:58:07;;;;;;;0.60;0.60;;;;;;;;;;5051368;28;20230;-79
2023/10/20 11:00:33;;;;;;;0.37;0.37;;;;;;;;;;5037775;28;20233;-76
2023/10/20 11:02:58;;;;;;;1.53;1.43;;;;;;;;;;5051503;28;20271;-76
2023/10/20 11:05:24;;;;;;;0.53;0.53;;;;;;;;;;5033142;28;20183;-76
2023/10/20 11:07:57;;;;;;;1.13;0.50;;;;;;;;;;5031567;28;20175;-76
2023/10/20 11:10:28;;;;;;;0.60;0.60;;;;;;;;;;5052168;28;20250;-76
2023/10/20 11:12:56;;;;;;;0.63;0.63;;;;;;;;;;5039050;28;20179;-76
2023/10/20 11:15:24;;;;;;;0.53;0.53;;;;;;;;;;5046017;28;20190;-76
2023/10/20 11:17:49;;;;;;;0.53;0.53;;;;;;;;;;5032800;28;20200;-76
2023/10/20 11:20:18;;;;;;;0.50;0.50;;;;;;;;;;5049215;28;20176;-76
2023/10/20 11:22:44;;;;;;;1.47;1.30;;;;;;;;;;5048794;28;20173;-77
2023/10/20 11:25:17;;;;;;;0.80;0.80;;;;;;;;;;5058942;28;20179;-76
2023/10/20 11:27:42;;;;;;;11.53;1.23;;;;;;;;;;5043627;28;20208;-76
2023/10/20 11:30:09;;;;;;;1.70;0.50;;;;;;;;;;5045928;28;20185;-76
2023/10/20 11:32:34;;;;;;;0.40;0.40;;;;;;;;;;5030774;28;20270;-76
2023/10/20 11:35:00;;;;;;;0.40;0.40;;;;;;;;;;5029504;28;20283;-76
2023/10/20 11:37:25;;;;;;;0.33;0.33;;;;;;;;;;5063657;28;20224;-76
2023/10/20 11:39:50;;;;;;;0.50;0.50;;;;;;;;;;5052188;28;20179;-76
2023/10/20 11:42:15;;;;;;;1.00;0.63;;;;;;;;;;5041566;28;20211;-76
2023/10/20 11:44:40;;;;;;;0.30;0.30;;;;;;;;;;5036210;28;20270;-76
2023/10/20 11:47:06;;;;;;;2.13;0.60;;;;;;;;;;5036570;28;20339;-76
2023/10/20 11:49:31;;;;;;;1.57;0.60;;;;;;;;;;5025410;28;20182;-76
2023/10/20 11:51:57;;;;;;;1.47;0.57;;;;;;;;;;5039850;28;20207;-76
2023/10/20 11:54:22;;;;;;;0.90;0.90;;;;;;;;;;5044453;28;20248;-76
2023/10/20 11:56:47;;;;;;;0.33;0.33;;;;;;;;;;5057605;28;20200;-76
2023/10/20 11:59:13;;;;;;;0.70;0.70;;;;;;;;;;5045587;28;20208;-76
2023/10/20 12:01:38;;;;;;;0.20;0.20;;;;;;;;;;5050235;28;20179;-76
2023/10/20 12:04:06;;;;;;;0.40;0.40;;;;;;;;;;5033547;28;20203;-76
2023/10/20 12:06:31;;;;;;;0.30;0.30;;;;;;;;;;5031350;28;20227;-76
2023/10/20 12:08:56;;;;;;;0.30;0.30;;;;;;;;;;5031192;28;20208;-76
2023/10/20 12:11:22;;;;;;;25.10;2.40;;;;;;;;;;5032177;28;20186;-76
2023/10/20 12:13:48;;;;;;;0.50;0.50;;;;;;;;;;5030807;28;20203;-76
2023/10/20 12:16:19;;;;;;;0.40;0.40;;;;;;;;;;5032776;28;20205;-77
2023/10/20 12:18:44;;;;;;;0.40;0.40;;;;;;;;;;5029271;28;20178;-75
2023/10/20 12:21:10;;;;;;;0.60;0.37;;;;;;;;;;5027455;28;20187;-75
2023/10/20 12:23:36;;;;;;;0.20;0.20;;;;;;;;;;5054657;28;20268;-75
2023/10/20 12:26:03;;;;;;;0.30;0.30;;;;;;;;;;5053104;28;20199;-75
2023/10/20 12:28:28;;;;;;;0.30;0.30;;;;;;;;;;5057428;28;20189;-75
2023/10/20 12:30:53;;;;;;;0.67;0.40;;;;;;;;;;5040611;28;20167;-75
2023/10/20 12:33:18;;;;;;;0.37;0.37;;;;;;;;;;5030784;28;20187;-75
2023/10/20 12:35:44;;;;;;;0.37;0.37;;;;;;;;;;5043758;28;20191;-75
2023/10/20 12:38:09;;;;;;;2.57;0.40;;;;;;;;;;5040366;28;20319;-75
2023/10/20 12:40:34;;;;;;;12.53;2.30;;;;;;;;;;5050730;28;20224;-75
2023/10/20 12:43:00;;;;;;;0.37;0.37;;;;;;;;;;5054152;28;20177;-75
2023/10/20 12:45:25;;;;;;;1.90;1.67;;;;;;;;;;5045744;28;20176;-76
2023/10/20 12:47:55;;;;;;;0.40;0.40;;;;;;;;;;5052717;28;20170;-75
2023/10/20 12:50:20;;;;;;;0.37;0.37;;;;;;;;;;5034229;28;20188;-75
2023/10/20 12:52:46;;;;;;;0.30;0.30;;;;;;;;;;5045260;28;20176;-75
2023/10/20 12:55:11;;;;;;;0.33;0.33;;;;;;;;;;5053925;28;20181;-75
2023/10/20 12:57:36;;;;;;;0.40;0.40;;;;;;;;;;5062169;28;20228;-75
2023/10/20 13:00:01;;;;;;;0.40;0.40;;;;;;;;;;5048619;28;20524;-75
2023/10/20 13:02:27;;;;;;;0.40;0.40;;;;;;;;;;5050009;28;20191;-75
2023/10/20 13:04:52;;;;;;;4.13;0.40;;;;;;;;;;5030503;28;20166;-75
2023/10/20 13:07:17;;;;;;;0.20;0.20;;;;;;;;;;5039084;28;20189;-75
2023/10/20 13:09:42;;;;;;;0.50;0.50;;;;;;;;;;5046927;28;20196;-75
2023/10/20 13:12:07;;;;;;;0.40;0.40;;;;;;;;;;5034092;28;20185;-75
2023/10/20 13:14:34;;;;;;;5.73;1.13;;;;;;;;;;5046091;28;20224;-75
2023/10/20 13:16:59;;;;;;;0.33;0.33;;;;;;;;;;5033649;28;20216;-75
2023/10/20 13:19:24;;;;;;;0.60;0.60;;;;;;;;;;5039663;28;20186;-75
2023/10/20 13:21:50;;;;;;;0.40;0.40;;;;;;;;;;5048650;28;20261;-75
2023/10/20 13:24:16;;;;;;;1.00;0.60;;;;;;;;;;5037278;28;20181;-75
2023/10/20 13:26:41;;;;;;;1.43;0.40;;;;;;;;;;5049939;28;20177;-75
2023/10/20 13:29:06;;;;;;;6.47;1.20;;;;;;;;;;5037344;28;20184;-75
2023/10/20 13:31:33;;;;;;;0.60;0.43;;;;;;;;;;5032799;28;20238;-75
2023/10/20 13:33:59;;;;;;;2.67;0.70;;;;;;;;;;5053966;28;20181;-75
2023/10/20 13:36:24;;;;;;;25.37;12.67;;;;;;;;;;5036221;28;20197;-75
2023/10/20 13:38:49;;;;;;;10.23;7.17;;;;;;;;;;5049655;28;20217;-76
2023/10/20 13:41:15;;;;;;;1.93;1.60;;;;;;;;;;5041138;28;20176;-75
2023/10/20 13:43:41;;;;;;;2.17;1.97;;;;;;;;;;5045168;28;20177;-75
2023/10/20 13:46:07;;;;;;;14.67;2.63;;;;;;;;;;5031556;28;20175;-75
2023/10/20 13:48:32;;;;;;;1.13;1.03;;;;;;;;;;5032409;28;20189;-76
2023/10/20 13:50:57;;;;;;;0.80;0.80;;;;;;;;;;5026901;28;20180;-76
2023/10/20 13:53:24;;;;;;;0.47;0.40;;;;;;;;;;5047359;28;20176;-76
2023/10/20 13:55:50;;;;;;;89.63;8.80;;;;;;;;;;5057897;28;20172;-75
2023/10/20 13:58:17;;;;;;;0.20;0.20;;;;;;;;;;5040501;28;20227;-75
2023/10/20 14:00:43;;;;;;;0.80;0.80;;;;;;;;;;5030308;28;20420;-75
2023/10/20 14:03:08;;;;;;;4.13;1.43;;;;;;;;;;5057512;28;20180;-75
2023/10/20 14:05:34;;;;;;;0.20;0.20;;;;;;;;;;5036066;28;20174;-76
2023/10/20 14:08:00;;;;;;;0.40;0.40;;;;;;;;;;5033464;28;20184;-75
2023/10/20 14:10:26;;;;;;;0.20;0.20;;;;;;;;;;5029115;28;20179;-75
2023/10/20 14:12:51;;;;;;;0.30;0.30;;;;;;;;;;5050911;28;20181;-76
2023/10/20 14:15:17;;;;;;;0.17;0.17;;;;;;;;;;5028934;28;20186;-75
2023/10/20 14:17:43;;;;;;;0.50;0.50;;;;;;;;;;5033199;28;20253;-75
2023/10/20 14:20:08;;;;;;;0.20;0.20;;;;;;;;;;5031432;28;20181;-75
2023/10/20 14:22:34;;;;;;;0.97;0.57;;;;;;;;;;5054117;28;20188;-75
2023/10/20 14:24:59;;;;;;;1.23;0.60;;;;;;;;;;5050409;28;20270;-75
2023/10/20 14:27:24;;;;;;;5.87;0.77;;;;;;;;;;5035023;28;20180;-75
2023/10/20 14:29:50;;;;;;;8.77;2.07;;;;;;;;;;5048870;28;20211;-75
2023/10/20 14:32:15;;;;;;;0.20;0.20;;;;;;;;;;5036665;28;20201;-75
2023/10/20 14:34:40;;;;;;;3.67;0.90;;;;;;;;;;5036317;28;20210;-75
2023/10/20 14:37:07;;;;;;;0.20;0.20;;;;;;;;;;5033026;28;20255;-76
2023/10/20 14:39:34;;;;;;;0.67;0.67;;;;;;;;;;5044473;28;20305;-75
2023/10/20 14:41:59;;;;;;;2.00;1.90;;;;;;;;;;5046547;28;20195;-75
2023/10/20 14:44:24;;;;;;;0.40;0.40;;;;;;;;;;5033024;28;20245;-75
2023/10/20 14:46:50;;;;;;;0.40;0.40;;;;;;;;;;5039348;28;20233;-75
2023/10/20 14:49:15;;;;;;;0.33;0.33;;;;;;;;;;5032524;28;20418;-75
2023/10/20 14:51:40;;;;;;;2.30;0.50;;;;;;;;;;5030921;28;20188;-75
2023/10/20 14:54:05;;;;;;;0.30;0.30;;;;;;;;;;5026527;28;20179;-76
2023/10/20 14:56:35;;;;;;;0.27;0.27;;;;;;;;;;5050773;28;20197;-76
2023/10/20 14:59:00;;;;;;;0.50;0.50;;;;;;;;;;5048537;28;20224;-75
2023/10/20 15:01:26;;;;;;;1.33;0.60;;;;;;;;;;5026696;28;20295;-75
2023/10/20 15:03:51;;;;;;;0.30;0.30;;;;;;;;;;5025487;28;20266;-76
2023/10/20 15:06:17;;;;;;;0.40;0.40;;;;;;;;;;5030542;28;20327;-76
2023/10/20 15:08:42;;;;;;;0.40;0.30;;;;;;;;;;5031681;28;20263;-76
2023/10/20 15:11:07;;;;;;;0.23;0.23;;;;;;;;;;5030885;28;20257;-75